createdAt,value
2022-08-02T00:00:44.153Z,100299.47
2022-08-02T00:03:46.961Z,100302.28
2022-08-02T00:06:49.729Z,100302.28
2022-08-02T00:09:52.503Z,100304.22
2022-08-02T00:12:55.237Z,100304.09
2022-08-02T00:15:58.377Z,100297.13
2022-08-02T00:19:01.074Z,100310.63
2022-08-02T00:22:03.859Z,100307.53
2022-08-02T00:25:06.989Z,100299.47
2022-08-02T00:28:11.175Z,100302.50
2022-08-02T00:31:13.758Z,100303.34
2022-08-02T00:34:30.195Z,100304.59
2022-08-02T00:37:39.073Z,100303.06
2022-08-02T00:40:48.454Z,100307.44
2022-08-02T00:43:52.523Z,100305.34
2022-08-02T00:46:55.412Z,100303.78
2022-08-02T00:49:58.006Z,100314.16
2022-08-02T00:53:01.032Z,100313.19
2022-08-02T00:56:03.975Z,100303.47
2022-08-02T00:59:06.814Z,100315.63
2022-08-02T01:02:10.078Z,100313.69
2022-08-02T01:05:13.719Z,100322.81
2022-08-02T01:08:16.449Z,100330.03
2022-08-02T01:11:19.625Z,100333.03
2022-08-02T01:14:24.590Z,100330.78
2022-08-02T01:17:45.323Z,100326.75
2022-08-02T01:21:29.938Z,100333.72
2022-08-02T01:24:46.180Z,100336.34
2022-08-02T01:28:28.299Z,100336.00
2022-08-02T01:31:35.928Z,100334.56
2022-08-02T01:34:44.180Z,100329.69
2022-08-02T01:37:55.106Z,100331.03
2022-08-02T01:41:01.849Z,100319.50
2022-08-02T01:44:06.320Z,100331.34
2022-08-02T01:47:17.992Z,100320.62
2022-08-02T01:50:27.719Z,100319.06
2022-08-02T01:53:31.744Z,100329.38
2022-08-02T01:56:35.957Z,100336.69
2022-08-02T01:59:42.605Z,100340.53
2022-08-02T02:02:48.108Z,100347.88
2022-08-02T02:05:53.838Z,100355.09
2022-08-02T02:08:58.653Z,100353.81
2022-08-02T02:12:06.217Z,100354.31
2022-08-02T02:15:17.803Z,100360.25
2022-08-02T02:18:24.416Z,100360.41
2022-08-02T02:21:26.992Z,100362.81
2022-08-02T02:24:30.223Z,100359.22
2022-08-02T02:27:34.433Z,100357.31
2022-08-02T02:30:45.639Z,100360.31
2022-08-02T02:34:20.929Z,100372.41
2022-08-02T02:37:26.750Z,100376.22
2022-08-02T02:40:32.831Z,100378.59
2022-08-02T02:43:38.422Z,100372.03
2022-08-02T02:46:41.757Z,100376.22
2022-08-02T02:49:47.384Z,100370.50
2022-08-02T02:52:50.790Z,100369.66
2022-08-02T02:56:01.765Z,100371.81
2022-08-02T02:59:07.361Z,100374.56
2022-08-02T03:02:11.713Z,100378.97
2022-08-02T03:05:15.821Z,100377.78
2022-08-02T03:08:18.792Z,100371.56
2022-08-02T03:11:22.563Z,100365.94
2022-08-02T03:14:25.836Z,100369.63
2022-08-02T03:17:39.004Z,100367.00
2022-08-02T03:20:43.451Z,100357.59
2022-08-02T03:23:46.175Z,100356.63
2022-08-02T03:26:48.957Z,100348.72
2022-08-02T03:29:51.508Z,100359.41
2022-08-02T03:32:54.478Z,100360.25
2022-08-02T03:36:02.371Z,100364.50
2022-08-02T03:39:06.742Z,100362.50
2022-08-02T03:42:10.041Z,100366.00
2022-08-02T03:45:18.594Z,100372.09
2022-08-02T03:48:34.339Z,100372.78
2022-08-02T03:51:37.970Z,100374.94
2022-08-02T03:54:45.136Z,100385.09
2022-08-02T03:57:48.619Z,100386.66
2022-08-02T04:00:56.254Z,100392.41
2022-08-02T04:03:59.045Z,100395.00
2022-08-02T04:07:01.763Z,100393.09
2022-08-02T04:10:11.171Z,100383.41
2022-08-02T04:13:13.771Z,100388.91
2022-08-02T04:16:23.620Z,100398.59
2022-08-02T04:19:39.529Z,100397.75
2022-08-02T04:22:58.038Z,100405.66
2022-08-02T04:26:01.840Z,100405.66
2022-08-02T04:29:08.295Z,100408.75
2022-08-02T04:32:11.206Z,100411.47
2022-08-02T04:35:19.810Z,100410.81
2022-08-02T04:38:23.071Z,100410.09
2022-08-02T04:41:38.347Z,100419.69
2022-08-02T04:44:46.302Z,100419.50
2022-08-02T04:48:01.451Z,100419.59
2022-08-02T04:51:06.267Z,100423.00
2022-08-02T04:54:10.645Z,100424.16
2022-08-02T04:57:31.747Z,100430.59
2022-08-02T05:00:35.182Z,100431.91
2022-08-02T05:03:37.861Z,100428.94
2022-08-02T05:06:40.680Z,100431.59
2022-08-02T05:09:43.196Z,100421.38
2022-08-02T05:12:46.264Z,100424.72
2022-08-02T05:15:50.548Z,100426.31
2022-08-02T05:18:53.559Z,100430.66
2022-08-02T05:21:56.156Z,100434.19
2022-08-02T05:24:58.989Z,100434.78
2022-08-02T05:28:01.508Z,100440.22
2022-08-02T05:31:04.559Z,100459.19
2022-08-02T05:34:16.089Z,100465.44
2022-08-02T05:37:19.274Z,100469.19
2022-08-02T05:40:25.920Z,100463.94
2022-08-02T05:43:28.962Z,100465.72
2022-08-02T05:46:31.596Z,100473.50
2022-08-02T05:49:34.445Z,100472.66
2022-08-02T05:52:59.094Z,100464.16
2022-08-02T05:56:15.337Z,100464.09
2022-08-02T05:59:31.138Z,100462.41
2022-08-02T06:03:00.879Z,100468.06
2022-08-02T06:06:16.241Z,100461.88
2022-08-02T06:09:21.038Z,100466.16
2022-08-02T06:12:33.000Z,100472.03
2022-08-02T06:15:40.701Z,100479.47
2022-08-02T06:18:57.199Z,100474.56
2022-08-02T06:22:42.131Z,100475.03
2022-08-02T06:25:50.997Z,100482.41
2022-08-02T06:28:55.690Z,100476.59
2022-08-02T06:31:58.909Z,100479.09
2022-08-02T06:35:03.981Z,100476.75
2022-08-02T06:38:09.549Z,100484.69
2022-08-02T06:41:15.623Z,100487.63
2022-08-02T06:47:41.020Z,100486.47
2022-08-02T06:50:44.428Z,100489.66
2022-08-02T06:53:47.613Z,100483.59
2022-08-02T06:56:50.524Z,100485.16
2022-08-02T06:59:53.464Z,100488.91
2022-08-02T07:02:56.678Z,100492.34
2022-08-02T07:06:00.997Z,100491.44
2022-08-02T07:09:20.606Z,100491.66
2022-08-02T07:12:23.714Z,100487.53
2022-08-02T07:15:26.566Z,100488.28
2022-08-02T07:18:29.352Z,100490.31
2022-08-02T07:21:56.700Z,100492.84
2022-08-02T07:24:56.841Z,100492.16
2022-08-02T07:27:59.564Z,100495.44
2022-08-02T07:31:04.195Z,100495.63
2022-08-02T07:34:07.498Z,100490.47
2022-08-02T07:37:22.336Z,100484.78
2022-08-02T07:40:33.755Z,100478.50
2022-08-02T07:43:37.071Z,100486.03
2022-08-02T07:46:39.846Z,100485.53
2022-08-02T07:49:42.626Z,100481.59
2022-08-02T07:52:46.320Z,100477.97
2022-08-02T07:55:48.818Z,100476.44
2022-08-02T07:58:51.993Z,100478.28
2022-08-02T08:01:54.655Z,100467.16
2022-08-02T08:04:58.272Z,100468.59
2022-08-02T08:08:00.757Z,100465.59
2022-08-02T08:11:03.712Z,100467.28
2022-08-02T08:14:25.341Z,100464.25
2022-08-02T08:17:28.162Z,100473.84
2022-08-02T08:20:30.696Z,100471.19
2022-08-02T08:23:33.513Z,100475.44
2022-08-02T08:26:36.066Z,100475.75
2022-08-02T08:29:38.851Z,100476.75
2022-08-02T08:32:41.357Z,100480.53
2022-08-02T08:35:44.111Z,100488.16
2022-08-02T08:38:46.625Z,100484.81
2022-08-02T08:41:49.908Z,100483.91
2022-08-02T08:44:52.562Z,100484.09
2022-08-02T08:48:12.745Z,100490.00
2022-08-02T08:51:19.367Z,100486.91
2022-08-02T08:54:27.724Z,100484.41
2022-08-02T08:57:31.734Z,100479.97
2022-08-02T09:00:36.403Z,100484.41
2022-08-02T09:03:39.211Z,100493.16
2022-08-02T09:06:42.545Z,100491.63
2022-08-02T09:09:45.061Z,100491.84
2022-08-02T09:13:38.050Z,100493.34
2022-08-02T09:16:36.708Z,100493.25
2022-08-02T09:19:45.746Z,100493.47
2022-08-02T09:23:07.249Z,100497.16
2022-08-02T09:26:13.971Z,100491.22
2022-08-02T09:29:18.368Z,100485.50
2022-08-02T09:32:24.431Z,100488.25
2022-08-02T09:36:06.853Z,100491.88
2022-08-02T09:39:05.341Z,100485.72
2022-08-02T09:42:10.889Z,100495.38
2022-08-02T09:45:13.959Z,100501.09
2022-08-02T09:48:16.574Z,100488.84
2022-08-02T09:51:22.086Z,100486.19
2022-08-02T09:54:28.732Z,100483.53
2022-08-02T09:57:33.672Z,100476.63
2022-08-02T10:00:51.777Z,100478.53
2022-08-02T10:03:57.774Z,100478.53
2022-08-02T10:07:17.179Z,100474.72
2022-08-02T10:10:35.154Z,100475.94
2022-08-02T10:13:37.725Z,100470.31
2022-08-02T10:16:42.488Z,100465.41
2022-08-02T10:20:02.675Z,100455.88
2022-08-02T10:23:10.249Z,100452.34
2022-08-02T10:26:15.942Z,100457.13
2022-08-02T10:29:24.279Z,100457.97
2022-08-02T10:32:39.537Z,100446.47
2022-08-02T10:36:06.703Z,100440.94
2022-08-02T10:39:10.455Z,100445.00
2022-08-02T10:42:33.928Z,100445.59
2022-08-02T10:45:36.522Z,100418.56
2022-08-02T10:49:38.611Z,100427.94
2022-08-02T10:52:40.850Z,100426.03
2022-08-02T10:55:47.095Z,100423.63
2022-08-02T10:59:27.519Z,100432.47
2022-08-02T11:02:53.292Z,100428.06
2022-08-02T11:06:07.575Z,100430.53
2022-08-02T11:09:32.950Z,100420.84
2022-08-02T11:13:04.972Z,100417.53
2022-08-02T11:16:11.621Z,100415.88
2022-08-02T11:19:14.868Z,100422.47
2022-08-02T11:22:25.199Z,100414.28
2022-08-02T11:25:43.008Z,100410.97
2022-08-02T11:28:51.706Z,100408.88
2022-08-02T11:31:54.213Z,100412.78
2022-08-02T11:34:59.196Z,100415.06
2022-08-02T11:38:16.212Z,100406.81
2022-08-02T11:41:47.450Z,100409.94
2022-08-02T11:44:46.768Z,100407.00
2022-08-02T11:47:52.013Z,100395.84
2022-08-02T11:51:23.116Z,100400.59
2022-08-02T11:54:28.555Z,100396.06
2022-08-02T11:58:04.484Z,100400.59
2022-08-02T12:01:16.315Z,100400.94
2022-08-02T12:04:22.842Z,100400.72
2022-08-02T12:07:34.357Z,100400.19
2022-08-02T12:10:50.238Z,100393.37
2022-08-02T12:13:57.219Z,100393.78
2022-08-02T12:17:18.734Z,100400.50
2022-08-02T12:20:37.448Z,100407.19
2022-08-02T12:23:57.155Z,100388.00
2022-08-02T12:27:03.901Z,100390.09
2022-08-02T12:30:13.300Z,100373.75
2022-08-02T12:33:17.673Z,100379.56
2022-08-02T12:36:21.758Z,100376.22
2022-08-02T12:39:33.806Z,100387.16
2022-08-02T12:42:46.762Z,100375.97
2022-08-02T12:45:55.268Z,100377.75
2022-08-02T12:49:17.447Z,100371.44
2022-08-02T12:52:22.299Z,100382.41
2022-08-02T12:55:59.319Z,100373.66
2022-08-02T12:58:50.750Z,100374.31
2022-08-02T13:01:53.628Z,100369.19
2022-08-02T13:04:59.680Z,100366.91
2022-08-02T13:08:04.483Z,100368.06
2022-08-02T13:11:07.358Z,100369.19
2022-08-02T13:14:10.214Z,100370.88
2022-08-02T13:17:12.931Z,100374.56
2022-08-02T13:20:17.554Z,100367.88
2022-08-02T13:23:21.694Z,100363.72
2022-08-02T13:26:29.600Z,100361.59
2022-08-02T13:29:33.900Z,100361.25
2022-08-02T13:32:36.727Z,100359.28
2022-08-02T13:35:39.210Z,100352.06
2022-08-02T13:38:42.171Z,100352.06
2022-08-02T13:41:44.822Z,100352.25
2022-08-02T13:44:47.652Z,100358.22
2022-08-02T13:47:57.559Z,100346.22
2022-08-02T13:51:11.959Z,100341.03
2022-08-02T13:54:17.869Z,100347.97
2022-08-02T13:57:20.684Z,100347.22
2022-08-02T14:00:34.212Z,100341.22
2022-08-02T14:04:07.524Z,100331.53
2022-08-02T14:07:04.831Z,100332.69
2022-08-02T14:10:08.147Z,100338.91
2022-08-02T14:13:11.109Z,100340.47
2022-08-02T14:16:13.999Z,100336.00
2022-08-02T14:19:17.471Z,100335.25
2022-08-02T14:22:20.441Z,100334.31
2022-08-02T14:25:23.000Z,100329.91
2022-08-02T14:28:26.162Z,100326.94
2022-08-02T14:31:29.621Z,100322.94
2022-08-02T14:34:32.422Z,100325.88
2022-08-02T14:37:35.365Z,100321.13
2022-08-02T14:40:38.373Z,100322.03
2022-08-02T14:43:59.689Z,100322.97
2022-08-02T14:47:02.548Z,100324.78
2022-08-02T14:50:05.549Z,100321.81
2022-08-02T14:53:12.069Z,100320.84
2022-08-02T14:56:14.927Z,100328.06
2022-08-02T14:59:17.823Z,100321.87
2022-08-02T15:02:20.324Z,100326.47
2022-08-02T15:05:23.188Z,100323.31
2022-08-02T15:08:25.917Z,100322.69
2022-08-02T15:11:28.846Z,100330.75
2022-08-02T15:14:31.504Z,100335.09
2022-08-02T15:17:34.337Z,100334.12
2022-08-02T15:20:36.983Z,100327.38
2022-08-02T15:23:42.461Z,100336.13
2022-08-02T15:26:44.978Z,100324.13
2022-08-02T15:29:47.829Z,100335.41
2022-08-02T15:32:53.186Z,100328.13
2022-08-02T15:35:57.260Z,100315.81
2022-08-02T15:38:59.783Z,100318.00
2022-08-02T15:42:03.210Z,100317.81
2022-08-02T15:45:06.306Z,100309.81
2022-08-02T15:48:09.161Z,100328.22
2022-08-02T15:51:11.739Z,100324.53
2022-08-02T15:54:14.628Z,100325.31
2022-08-02T15:57:17.094Z,100320.28
2022-08-02T16:00:20.593Z,100322.25
2022-08-02T16:03:23.366Z,100331.50
2022-08-02T16:06:26.336Z,100323.94
2022-08-02T16:09:29.533Z,100323.72
2022-08-02T16:12:32.977Z,100333.66
2022-08-02T16:15:35.908Z,100333.25
2022-08-02T16:18:38.504Z,100332.84
2022-08-02T16:21:41.289Z,100328.37
2022-08-02T16:24:43.795Z,100320.78
2022-08-02T16:27:59.279Z,100325.56
2022-08-02T16:31:11.186Z,100337.81
2022-08-02T16:34:15.296Z,100330.50
2022-08-02T16:37:17.792Z,100337.88
2022-08-02T16:40:24.919Z,100334.00
2022-08-02T16:43:27.716Z,100334.66
2022-08-02T16:46:32.476Z,100337.16
2022-08-02T16:50:07.035Z,100334.63
2022-08-02T16:52:58.628Z,100342.13
2022-08-02T16:56:01.534Z,100343.19
2022-08-02T16:59:04.321Z,100343.34
2022-08-02T17:02:15.248Z,100343.66
2022-08-02T17:05:21.564Z,100343.13
2022-08-02T17:08:24.378Z,100339.91
2022-08-02T17:11:39.946Z,100346.72
2022-08-02T17:18:13.954Z,100348.94
2022-08-02T17:21:18.266Z,100354.59
2022-08-02T17:24:21.237Z,100354.84
2022-08-02T17:27:23.710Z,100361.50
2022-08-02T17:30:27.329Z,100361.34
2022-08-02T17:33:29.924Z,100358.56
2022-08-02T17:36:34.412Z,100358.94
2022-08-02T17:39:44.248Z,100363.47
2022-08-02T17:42:54.963Z,100370.13
2022-08-02T17:45:59.863Z,100366.00
2022-08-02T17:49:17.606Z,100372.78
2022-08-02T17:52:51.867Z,100371.94
2022-08-02T17:55:46.277Z,100379.50
2022-08-02T17:58:54.097Z,100373.84
2022-08-02T18:02:03.542Z,100381.56
2022-08-02T18:05:11.581Z,100388.19
2022-08-02T18:08:16.143Z,100394.50
2022-08-02T18:11:52.948Z,100395.34
2022-08-02T18:14:49.286Z,100399.13
2022-08-02T18:17:52.166Z,100406.41
2022-08-02T18:20:58.686Z,100404.81
2022-08-02T18:24:19.406Z,100415.81
2022-08-02T18:27:26.641Z,100414.53
2022-08-02T18:30:31.452Z,100413.22
2022-08-02T18:33:57.290Z,100420.56
2022-08-02T18:36:57.387Z,100420.66
2022-08-02T18:40:00.149Z,100430.31
2022-08-02T18:43:03.296Z,100430.81
2022-08-02T18:46:16.051Z,100433.66
2022-08-02T18:49:19.800Z,100436.53
2022-08-02T18:52:31.034Z,100438.19
2022-08-02T18:55:59.699Z,100434.69
2022-08-02T18:58:58.466Z,100436.38
2022-08-02T19:02:01.493Z,100435.84
2022-08-02T19:05:07.054Z,100447.63
2022-08-02T19:08:10.060Z,100448.59
2022-08-02T19:11:13.593Z,100448.25
2022-08-02T19:14:24.076Z,100452.06
2022-08-02T19:17:55.104Z,100456.41
2022-08-02T19:20:53.469Z,100452.50
2022-08-02T19:23:56.179Z,100454.09
2022-08-02T19:26:59.052Z,100459.91
2022-08-02T19:30:16.368Z,100465.38
2022-08-02T19:33:25.063Z,100460.06
2022-08-02T19:36:42.784Z,100465.31
2022-08-02T19:39:45.764Z,100471.41
2022-08-02T19:44:20.926Z,100465.44
2022-08-02T19:46:15.560Z,100467.41
2022-08-02T19:49:20.250Z,100456.56
2022-08-02T19:52:42.221Z,100458.66
2022-08-02T19:56:01.097Z,100462.22
2022-08-02T19:59:13.283Z,100460.31
2022-08-02T20:02:18.351Z,100458.97
2022-08-02T20:05:26.511Z,100458.91
2022-08-02T20:08:35.331Z,100458.19
2022-08-02T20:11:39.122Z,100459.12
2022-08-02T20:14:50.819Z,100456.25
2022-08-02T20:17:54.282Z,100463.97
2022-08-02T20:20:56.899Z,100461.81
2022-08-02T20:23:59.895Z,100463.41
2022-08-02T20:27:03.251Z,100461.91
2022-08-02T20:30:06.787Z,100467.50
2022-08-02T20:33:21.660Z,100472.56
2022-08-02T20:36:27.026Z,100480.00
2022-08-02T20:39:42.987Z,100486.66
2022-08-02T20:42:47.803Z,100492.09
2022-08-02T20:45:50.866Z,100485.69
2022-08-02T20:48:53.700Z,100478.94
2022-08-02T20:52:01.710Z,100497.44
2022-08-02T20:55:05.052Z,100495.91
2022-08-02T20:58:11.827Z,100493.38
2022-08-02T21:01:14.929Z,100483.00
2022-08-02T21:04:19.271Z,100483.91
2022-08-02T21:07:22.319Z,100479.47
2022-08-02T21:10:25.307Z,100488.47
2022-08-02T21:13:28.040Z,100485.97
2022-08-02T21:16:30.568Z,100480.63
2022-08-02T21:19:33.688Z,100486.75
2022-08-02T21:22:36.213Z,100486.19
2022-08-02T21:25:42.696Z,100484.50
2022-08-02T21:29:03.717Z,100483.44
2022-08-02T21:32:07.148Z,100476.03
2022-08-02T21:35:10.603Z,100493.78
2022-08-02T21:38:35.234Z,100476.81
2022-08-02T21:41:39.441Z,100476.63
2022-08-02T21:44:50.629Z,100483.41
2022-08-02T21:47:53.342Z,100474.94
2022-08-02T21:50:56.147Z,100479.91
2022-08-02T21:54:17.080Z,100474.63
2022-08-02T21:57:22.595Z,100477.31
2022-08-02T22:00:28.901Z,100478.03
2022-08-02T22:03:32.352Z,100479.44
2022-08-02T22:06:35.537Z,100489.50
2022-08-02T22:09:43.419Z,100492.41
2022-08-02T22:12:47.841Z,100490.34
2022-08-02T22:15:50.708Z,100487.28
2022-08-02T22:18:53.679Z,100494.53
2022-08-02T22:21:59.008Z,100498.97
2022-08-02T22:25:01.808Z,100498.44
2022-08-02T22:28:36.733Z,100498.41
2022-08-02T22:31:40.849Z,100502.59
2022-08-02T22:34:51.648Z,100505.37
2022-08-02T22:38:14.755Z,100504.97
2022-08-02T22:41:17.858Z,100508.16
2022-08-02T22:44:20.597Z,100515.28
2022-08-02T22:47:23.336Z,100509.31
2022-08-02T22:50:31.838Z,100518.63
2022-08-02T22:53:35.443Z,100524.87
2022-08-02T22:56:38.556Z,100523.62
2022-08-02T22:58:37.496Z,100344.91
2022-08-02T22:59:47.447Z,100528.03
2022-08-02T23:02:51.184Z,100521.87
2022-08-02T23:05:54.234Z,100527.16
2022-08-02T23:08:56.752Z,100527.81
2022-08-02T23:11:59.609Z,100524.44
2022-08-02T23:15:02.190Z,100521.50
2022-08-02T23:18:24.754Z,100528.44
2022-08-02T23:21:46.161Z,100518.41
2022-08-02T23:24:55.588Z,100523.38
2022-08-02T23:27:58.028Z,100527.91
2022-08-02T23:31:01.586Z,100521.09
2022-08-02T23:34:04.952Z,100518.00
2022-08-02T23:37:07.951Z,100524.53
2022-08-02T23:40:10.864Z,100519.50
2022-08-02T23:43:15.380Z,100519.38
2022-08-02T23:46:17.950Z,100517.69
2022-08-02T23:49:22.253Z,100520.56
2022-08-02T23:52:24.969Z,100518.66
2022-08-02T23:55:27.727Z,100519.25
2022-08-02T23:58:32.855Z,100515.88
